createdAt,value
2019-02-06T00:00:01.077Z,69.63
2019-02-06T00:02:28.855Z,70.97
2019-02-06T00:04:56.347Z,72.00
2019-02-06T00:07:24.135Z,65.30
2019-02-06T00:09:51.903Z,72.77
2019-02-06T00:12:19.905Z,67.40
2019-02-06T00:14:47.449Z,71.60
2019-02-06T00:17:14.981Z,72.50
2019-02-06T00:19:42.529Z,70.50
2019-02-06T00:22:10.207Z,71.20
2019-02-06T00:24:37.810Z,66.97
2019-02-06T00:27:05.371Z,63.93
2019-02-06T00:29:32.863Z,67.47
2019-02-06T00:32:00.928Z,65.40
2019-02-06T00:34:28.533Z,66.37
2019-02-06T00:36:56.066Z,69.47
2019-02-06T00:39:23.757Z,68.50
2019-02-06T00:41:51.327Z,72.37
2019-02-06T00:44:18.873Z,68.90
2019-02-06T00:46:46.464Z,69.00
2019-02-06T00:49:14.042Z,69.50
2019-02-06T00:51:42.736Z,72.93
2019-02-06T00:54:10.334Z,73.43
2019-02-06T00:56:37.762Z,70.17
2019-02-06T00:59:05.396Z,66.80
2019-02-06T01:01:33.188Z,72.83
2019-02-06T01:04:00.808Z,67.33
2019-02-06T01:06:28.230Z,69.37
2019-02-06T01:08:55.961Z,77.77
2019-02-06T01:11:23.693Z,71.73
2019-02-06T01:13:51.277Z,73.77
2019-02-06T01:16:19.184Z,70.20
2019-02-06T01:18:47.524Z,76.53
2019-02-06T01:21:15.105Z,64.97
2019-02-06T01:23:43.079Z,72.20
2019-02-06T01:26:10.618Z,66.10
2019-02-06T01:28:38.122Z,68.77
2019-02-06T01:31:25.129Z,69.30
2019-02-06T01:33:52.633Z,71.57
2019-02-06T01:36:20.308Z,73.97
2019-02-06T01:38:47.989Z,63.23
2019-02-06T01:41:15.503Z,77.17
2019-02-06T01:43:43.154Z,69.13
2019-02-06T01:46:10.716Z,74.47
2019-02-06T01:48:38.206Z,64.63
2019-02-06T01:51:05.658Z,65.17
2019-02-06T01:53:33.232Z,66.97
2019-02-06T01:56:01.076Z,64.27
2019-02-06T01:58:28.676Z,63.37
2019-02-06T02:00:56.434Z,67.77
2019-02-06T02:03:24.146Z,64.73
2019-02-06T02:06:01.703Z,64.43
2019-02-06T02:08:20.964Z,62.27
2019-02-06T02:10:48.593Z,57.70
2019-02-06T02:13:16.585Z,61.53
2019-02-06T02:15:44.138Z,66.57
2019-02-06T02:18:11.781Z,64.80
2019-02-06T02:20:39.207Z,64.67
2019-02-06T02:23:06.805Z,67.97
2019-02-06T02:25:34.369Z,62.10
2019-02-06T02:28:01.975Z,59.70
2019-02-06T02:30:41.358Z,66.37
2019-02-06T02:33:10.238Z,65.17
2019-02-06T02:35:38.049Z,62.90
2019-02-06T02:38:05.672Z,65.27
2019-02-06T02:40:33.266Z,69.43
2019-02-06T02:43:00.898Z,65.43
2019-02-06T02:45:28.810Z,65.27
2019-02-06T02:47:56.312Z,62.97
2019-02-06T02:50:23.982Z,68.70
2019-02-06T02:52:51.670Z,70.03
2019-02-06T02:55:19.277Z,71.03
2019-02-06T02:57:46.807Z,63.83
2019-02-06T03:00:16.597Z,64.03
2019-02-06T03:03:03.851Z,62.43
2019-02-06T03:05:33.579Z,63.87
2019-02-06T03:08:01.087Z,63.07
2019-02-06T03:10:28.674Z,66.20
2019-02-06T03:12:56.238Z,56.90
2019-02-06T03:15:23.995Z,62.78
2019-02-06T03:17:51.452Z,66.30
2019-02-06T03:20:19.134Z,64.90
2019-02-06T03:22:46.733Z,62.97
2019-02-06T03:25:14.501Z,63.77
2019-02-06T03:27:42.031Z,64.40
2019-02-06T03:30:12.872Z,64.33
2019-02-06T03:32:40.427Z,59.07
2019-02-06T03:35:08.058Z,60.90
2019-02-06T03:37:35.630Z,62.23
2019-02-06T03:40:04.254Z,58.23
2019-02-06T03:42:32.913Z,58.50
2019-02-06T03:45:01.586Z,56.90
2019-02-06T03:47:29.211Z,54.03
2019-02-06T03:49:56.932Z,48.67
2019-02-06T03:52:24.286Z,50.43
2019-02-06T03:54:51.898Z,50.63
2019-02-06T03:57:19.463Z,49.93
2019-02-06T03:59:46.770Z,47.50
2019-02-06T04:02:14.434Z,46.30
2019-02-06T04:04:42.182Z,48.33
2019-02-06T04:07:10.019Z,47.40
2019-02-06T04:09:37.584Z,46.83
2019-02-06T04:12:05.595Z,45.40
2019-02-06T04:14:32.938Z,44.63
2019-02-06T04:17:00.299Z,42.07
2019-02-06T04:19:27.797Z,45.87
2019-02-06T04:21:55.520Z,45.03
2019-02-06T04:24:23.639Z,39.50
2019-02-06T04:26:51.210Z,36.90
2019-02-06T04:29:18.824Z,42.83
2019-02-06T04:31:46.310Z,42.70
2019-02-06T04:34:13.815Z,39.60
2019-02-06T04:36:41.275Z,41.17
2019-02-06T04:39:08.718Z,41.20
2019-02-06T04:41:36.781Z,40.00
2019-02-06T04:44:05.046Z,35.33
2019-02-06T04:46:32.608Z,35.10
2019-02-06T04:49:02.938Z,39.20
2019-02-06T04:51:30.526Z,41.17
2019-02-06T04:53:58.026Z,38.60
2019-02-06T04:56:25.623Z,35.87
2019-02-06T04:58:53.559Z,39.70
2019-02-06T05:01:21.183Z,37.03
2019-02-06T05:03:48.872Z,43.10
2019-02-06T05:06:16.330Z,34.23
2019-02-06T05:08:44.029Z,36.63
2019-02-06T05:11:11.472Z,36.00
2019-02-06T05:13:39.014Z,36.43
2019-02-06T05:16:06.466Z,36.00
2019-02-06T05:18:33.976Z,32.20
2019-02-06T05:21:01.579Z,34.23
2019-02-06T05:23:30.469Z,34.50
2019-02-06T05:25:58.004Z,32.80
2019-02-06T05:28:25.562Z,34.38
2019-02-06T05:30:53.286Z,35.50
2019-02-06T05:33:20.872Z,36.90
2019-02-06T05:35:48.778Z,33.03
2019-02-06T05:38:16.325Z,35.00
2019-02-06T05:40:43.880Z,32.40
2019-02-06T05:43:11.482Z,32.47
2019-02-06T05:45:39.033Z,31.83
2019-02-06T05:48:06.774Z,33.10
2019-02-06T05:50:34.335Z,31.93
2019-02-06T05:53:01.978Z,34.67
2019-02-06T05:55:29.589Z,32.33
2019-02-06T05:58:00.407Z,27.83
2019-02-06T06:00:43.142Z,29.70
2019-02-06T06:03:10.859Z,28.23
2019-02-06T06:05:38.830Z,27.33
2019-02-06T06:08:06.817Z,31.90
2019-02-06T06:10:34.914Z,28.50
2019-02-06T06:13:02.839Z,28.60
2019-02-06T06:15:30.822Z,26.17
2019-02-06T06:17:58.485Z,27.13
2019-02-06T06:20:26.058Z,29.23
2019-02-06T06:22:53.622Z,26.00
2019-02-06T06:25:21.386Z,29.07
2019-02-06T06:27:49.415Z,24.80
2019-02-06T06:30:17.731Z,25.87
2019-02-06T06:32:46.102Z,24.90
2019-02-06T06:35:14.199Z,25.07
2019-02-06T06:38:02.891Z,23.03
2019-02-06T06:40:30.971Z,25.67
2019-02-06T06:42:59.331Z,26.97
2019-02-06T06:45:27.637Z,21.70
2019-02-06T06:47:59.325Z,26.07
2019-02-06T06:50:27.082Z,25.10
2019-02-06T06:52:54.617Z,23.30
2019-02-06T06:55:22.644Z,23.33
2019-02-06T06:57:50.399Z,23.40
2019-02-06T07:00:20.736Z,24.67
2019-02-06T07:02:48.324Z,19.73
2019-02-06T07:05:15.921Z,21.23
2019-02-06T07:07:43.672Z,21.70
2019-02-06T07:10:12.308Z,20.80
2019-02-06T07:12:40.469Z,17.80
2019-02-06T07:15:11.580Z,21.13
2019-02-06T07:17:59.636Z,23.10
2019-02-06T07:20:27.379Z,15.50
2019-02-06T07:22:54.826Z,18.73
2019-02-06T07:25:22.438Z,19.43
2019-02-06T07:27:49.922Z,17.17
2019-02-06T07:30:22.516Z,19.23
2019-02-06T07:32:50.002Z,20.90
2019-02-06T07:35:17.539Z,16.43
2019-02-06T07:37:45.152Z,15.87
2019-02-06T07:40:13.597Z,15.47
2019-02-06T07:42:41.261Z,17.47
2019-02-06T07:45:09.154Z,17.20
2019-02-06T07:47:36.899Z,14.98
2019-02-06T07:50:06.823Z,15.80
2019-02-06T07:52:34.471Z,16.75
2019-02-06T07:55:01.913Z,16.87
2019-02-06T07:57:29.923Z,12.80
2019-02-06T08:00:00.598Z,15.60
2019-02-06T08:02:28.257Z,13.83
2019-02-06T08:04:55.883Z,13.83
2019-02-06T08:07:23.498Z,18.53
2019-02-06T08:09:50.998Z,14.80
2019-02-06T08:12:18.567Z,18.60
2019-02-06T08:14:46.526Z,15.70
2019-02-06T08:17:14.136Z,13.93
2019-02-06T08:19:41.781Z,15.43
2019-02-06T08:22:09.327Z,13.93
2019-02-06T08:24:36.775Z,16.20
2019-02-06T08:27:04.310Z,13.27
2019-02-06T08:29:31.990Z,12.80
2019-02-06T08:31:59.547Z,12.10
2019-02-06T08:34:27.130Z,12.73
2019-02-06T08:36:54.662Z,12.07
2019-02-06T08:39:22.431Z,13.87
2019-02-06T08:41:50.004Z,13.27
2019-02-06T08:44:18.581Z,13.30
2019-02-06T08:46:46.194Z,13.80
2019-02-06T08:49:13.678Z,12.27
2019-02-06T08:51:41.150Z,13.73
2019-02-06T08:54:08.666Z,12.60
2019-02-06T08:56:36.298Z,11.77
2019-02-06T08:59:03.956Z,11.63
2019-02-06T09:01:31.736Z,14.33
2019-02-06T09:03:59.164Z,11.27
2019-02-06T09:06:26.841Z,12.10
2019-02-06T09:08:59.802Z,10.43
2019-02-06T09:11:24.122Z,11.33
2019-02-06T09:13:51.794Z,10.30
2019-02-06T09:16:19.408Z,12.37
2019-02-06T09:18:47.121Z,13.30
2019-02-06T09:21:15.828Z,14.43
2019-02-06T09:23:43.527Z,11.77
2019-02-06T09:26:11.437Z,11.30
2019-02-06T09:28:38.959Z,12.77
2019-02-06T09:31:06.474Z,10.23
2019-02-06T09:33:33.954Z,13.20
2019-02-06T09:36:01.770Z,11.00
2019-02-06T09:38:29.397Z,12.30
2019-02-06T09:40:57.005Z,15.70
2019-02-06T09:43:27.459Z,12.20
2019-02-06T09:45:56.948Z,10.70
2019-02-06T09:48:23.883Z,13.00
2019-02-06T09:50:51.553Z,14.57
2019-02-06T09:53:19.124Z,10.60
2019-02-06T09:55:46.685Z,12.70
2019-02-06T09:58:14.189Z,11.80
2019-02-06T10:00:42.383Z,13.53
2019-02-06T10:03:09.875Z,11.40
2019-02-06T10:05:37.539Z,10.23
2019-02-06T10:08:05.401Z,13.50
2019-02-06T10:10:33.014Z,10.90
2019-02-06T10:13:01.735Z,13.47
2019-02-06T10:15:33.999Z,11.73
2019-02-06T10:18:02.012Z,12.13
2019-02-06T10:20:32.266Z,11.67
2019-02-06T10:23:00.039Z,11.93
2019-02-06T10:25:30.206Z,10.87
2019-02-06T10:27:58.060Z,12.50
2019-02-06T10:30:34.054Z,11.93
2019-02-06T10:33:02.619Z,9.60
2019-02-06T10:35:30.131Z,10.67
2019-02-06T10:37:57.678Z,10.60
2019-02-06T10:40:25.564Z,10.13
2019-02-06T10:42:53.215Z,10.80
2019-02-06T10:45:21.287Z,11.20
2019-02-06T10:47:49.456Z,11.90
2019-02-06T10:50:19.359Z,11.93
2019-02-06T10:52:48.339Z,11.97
2019-02-06T10:55:15.961Z,12.77
2019-02-06T10:57:43.730Z,10.93
2019-02-06T11:00:15.614Z,12.87
2019-02-06T11:02:43.820Z,12.37
2019-02-06T11:05:12.231Z,12.20
2019-02-06T11:07:39.787Z,11.60
2019-02-06T11:10:07.892Z,13.90
2019-02-06T11:12:35.487Z,14.60
2019-02-06T11:15:03.613Z,13.53
2019-02-06T11:17:31.270Z,12.10
2019-02-06T11:19:58.725Z,11.50
2019-02-06T11:22:26.666Z,13.13
2019-02-06T11:24:54.270Z,13.83
2019-02-06T11:27:21.812Z,15.10
2019-02-06T11:29:49.352Z,13.23
2019-02-06T11:32:16.882Z,13.73
2019-02-06T11:34:44.680Z,12.20
2019-02-06T11:37:12.509Z,13.85
2019-02-06T11:39:40.490Z,15.93
2019-02-06T11:42:08.059Z,14.50
2019-02-06T11:44:35.542Z,12.77
2019-02-06T11:47:03.404Z,15.47
2019-02-06T11:49:37.090Z,14.53
2019-02-06T11:52:04.623Z,15.83
2019-02-06T11:54:32.259Z,12.67
2019-02-06T11:57:00.007Z,11.60
2019-02-06T11:59:27.485Z,16.10
2019-02-06T12:01:55.135Z,14.73
2019-02-06T12:04:22.552Z,13.50
2019-02-06T12:06:50.103Z,14.73
2019-02-06T12:09:17.394Z,12.97
2019-02-06T12:11:45.056Z,13.30
2019-02-06T12:14:13.827Z,16.07
2019-02-06T12:16:41.634Z,13.80
2019-02-06T12:19:09.118Z,12.93
2019-02-06T12:21:36.960Z,15.47
2019-02-06T12:24:04.967Z,13.10
2019-02-06T12:26:33.395Z,16.17
2019-02-06T12:29:00.951Z,15.33
2019-02-06T12:31:29.406Z,15.53
2019-02-06T12:33:57.068Z,14.90
2019-02-06T12:36:24.762Z,14.30
2019-02-06T12:38:53.854Z,15.70
2019-02-06T12:41:21.607Z,16.50
2019-02-06T12:43:49.256Z,17.30
2019-02-06T12:46:16.742Z,17.23
2019-02-06T12:48:44.405Z,14.20
2019-02-06T12:51:11.913Z,15.87
2019-02-06T12:53:39.963Z,15.50
2019-02-06T12:59:46.562Z,15.93
2019-02-06T13:02:10.575Z,18.63
2019-02-06T13:04:38.102Z,15.90
2019-02-06T13:07:05.672Z,17.77
2019-02-06T13:09:33.274Z,18.90
2019-02-06T13:12:00.761Z,14.93
2019-02-06T13:14:28.398Z,14.87
2019-02-06T13:16:56.112Z,17.10
2019-02-06T13:19:23.577Z,14.70
2019-02-06T13:21:51.094Z,15.20
2019-02-06T13:24:18.705Z,17.20
2019-02-06T13:26:46.549Z,17.83
2019-02-06T13:29:14.311Z,17.53
2019-02-06T13:31:45.999Z,13.67
2019-02-06T13:34:13.893Z,16.40
2019-02-06T13:36:41.463Z,16.13
2019-02-06T13:39:09.856Z,13.00
2019-02-06T13:41:38.334Z,15.70
2019-02-06T13:44:05.712Z,15.10
2019-02-06T13:46:33.415Z,15.90
2019-02-06T13:49:01.138Z,14.60
2019-02-06T13:51:29.860Z,17.50
2019-02-06T13:53:57.539Z,16.00
2019-02-06T13:56:25.078Z,19.40
2019-02-06T13:58:52.623Z,16.13
2019-02-06T14:01:26.169Z,15.47
2019-02-06T14:03:49.539Z,15.77
2019-02-06T14:06:17.429Z,15.93
2019-02-06T14:08:45.008Z,18.47
2019-02-06T14:11:13.303Z,21.20
2019-02-06T14:13:41.012Z,21.05
2019-02-06T14:16:08.519Z,19.30
2019-02-06T14:18:36.118Z,16.90
2019-02-06T14:21:04.520Z,18.50
2019-02-06T14:24:10.547Z,19.40
2019-02-06T14:27:09.953Z,19.27
2019-02-06T14:30:16.270Z,18.47
2019-02-06T14:33:37.578Z,18.40
2019-02-06T14:36:37.367Z,17.10
2019-02-06T14:39:27.538Z,19.40
2019-02-06T14:42:28.274Z,20.27
2019-02-06T14:45:12.453Z,18.43
2019-02-06T14:48:02.123Z,18.23
2019-02-06T14:51:25.974Z,18.97
2019-02-06T14:54:22.910Z,20.80
2019-02-06T14:57:16.508Z,19.57
2019-02-06T15:00:16.811Z,19.90
2019-02-06T15:03:47.583Z,19.50
2019-02-06T15:06:39.810Z,18.27
2019-02-06T15:09:52.321Z,20.47
2019-02-06T15:13:05.001Z,18.90
2019-02-06T15:16:29.578Z,19.30
2019-02-06T15:19:21.521Z,20.17
2019-02-06T15:22:19.572Z,20.33
2019-02-06T15:25:00.093Z,20.93
2019-02-06T15:27:53.267Z,24.25
2019-02-06T15:30:45.508Z,21.15
2019-02-06T15:33:42.099Z,20.87
2019-02-06T15:36:59.223Z,22.40
2019-02-06T15:39:56.238Z,22.60
2019-02-06T15:42:58.457Z,20.20
2019-02-06T15:46:05.919Z,21.50
2019-02-06T15:49:19.847Z,20.87
2019-02-06T15:52:22.446Z,22.73
2019-02-06T15:55:24.951Z,23.37
2019-02-06T15:58:35.669Z,26.30
2019-02-06T16:01:36.378Z,24.30
2019-02-06T16:05:00.313Z,24.20
2019-02-06T16:08:14.817Z,28.43
2019-02-06T16:11:14.946Z,24.27
2019-02-06T16:14:26.962Z,22.37
2019-02-06T16:17:21.862Z,26.03
2019-02-06T16:20:35.155Z,27.53
2019-02-06T16:23:29.898Z,26.20
2019-02-06T16:26:35.055Z,32.60
2019-02-06T16:29:39.441Z,28.03
2019-02-06T16:32:25.268Z,30.30
2019-02-06T16:35:25.738Z,31.53
2019-02-06T16:38:26.090Z,29.93
2019-02-06T16:42:02.919Z,33.98
2019-02-06T16:44:48.641Z,36.28
2019-02-06T16:47:55.374Z,31.40
2019-02-06T16:51:05.589Z,30.50
2019-02-06T16:54:02.073Z,27.20
2019-02-06T16:57:04.985Z,35.73
2019-02-06T17:00:14.351Z,31.40
2019-02-06T17:03:21.423Z,31.50
2019-02-06T17:06:17.838Z,32.27
2019-02-06T17:09:17.063Z,36.70
2019-02-06T17:12:06.181Z,38.77
2019-02-06T17:15:00.442Z,32.70
2019-02-06T17:17:50.446Z,37.63
2019-02-06T17:20:46.968Z,36.13
2019-02-06T17:23:56.574Z,35.43
2019-02-06T17:27:17.143Z,38.30
2019-02-06T17:30:08.810Z,39.83
2019-02-06T17:33:24.456Z,35.60
2019-02-06T17:36:15.249Z,39.53
2019-02-06T17:38:56.809Z,37.37
2019-02-06T17:41:49.225Z,40.67
2019-02-06T17:44:43.890Z,36.90
2019-02-06T17:47:34.312Z,35.03
2019-02-06T17:50:32.802Z,36.10
2019-02-06T17:53:38.088Z,38.13
2019-02-06T17:56:05.763Z,42.93
2019-02-06T17:58:36.865Z,44.67
2019-02-06T18:01:11.550Z,42.37
2019-02-06T18:03:46.041Z,45.70
2019-02-06T18:06:14.190Z,36.57
2019-02-06T18:08:41.685Z,41.03
2019-02-06T18:11:09.890Z,42.23
2019-02-06T18:13:37.526Z,38.47
2019-02-06T18:16:05.572Z,37.63
2019-02-06T18:18:33.106Z,34.83
2019-02-06T18:21:00.546Z,32.30
2019-02-06T18:23:28.459Z,36.40
2019-02-06T18:25:56.031Z,34.03
2019-02-06T18:28:24.822Z,38.03
2019-02-06T18:30:52.570Z,38.07
2019-02-06T18:33:20.171Z,39.37
2019-02-06T18:35:47.934Z,36.03
2019-02-06T18:38:16.074Z,42.97
2019-02-06T18:40:46.238Z,43.00
2019-02-06T18:43:13.878Z,39.73
2019-02-06T18:45:44.843Z,38.67
2019-02-06T18:48:12.870Z,35.73
2019-02-06T18:50:40.453Z,44.93
2019-02-06T18:53:08.119Z,41.83
2019-02-06T18:55:36.186Z,43.63
2019-02-06T18:58:05.318Z,40.57
2019-02-06T19:00:32.729Z,40.73
2019-02-06T19:03:01.752Z,44.70
2019-02-06T19:05:32.162Z,42.50
2019-02-06T19:07:59.923Z,47.58
2019-02-06T19:10:28.634Z,54.23
2019-02-06T19:12:56.483Z,52.80
2019-02-06T19:15:24.595Z,45.40
2019-02-06T19:17:52.173Z,41.47
2019-02-06T19:20:20.114Z,47.23
2019-02-06T19:22:47.646Z,42.03
2019-02-06T19:25:15.514Z,39.50
2019-02-06T19:27:46.075Z,37.97
2019-02-06T19:30:18.060Z,41.13
2019-02-06T19:32:45.628Z,46.30
2019-02-06T19:35:35.366Z,37.83
2019-02-06T19:38:03.410Z,38.60
2019-02-06T19:40:31.500Z,40.63
2019-02-06T19:43:02.557Z,47.63
2019-02-06T19:45:29.151Z,44.00
2019-02-06T19:47:57.230Z,36.40
2019-02-06T19:50:31.143Z,35.33
2019-02-06T19:52:58.711Z,44.33
2019-02-06T19:55:26.364Z,37.23
2019-02-06T19:57:54.243Z,43.23
2019-02-06T20:00:24.543Z,41.83
2019-02-06T20:02:52.259Z,39.30
2019-02-06T20:05:20.553Z,40.90
2019-02-06T20:07:48.379Z,42.00
2019-02-06T20:10:19.041Z,40.47
2019-02-06T20:12:47.783Z,39.13
2019-02-06T20:15:17.440Z,44.10
2019-02-06T20:17:45.027Z,52.23
2019-02-06T20:20:15.219Z,44.10
2019-02-06T20:22:42.836Z,42.78
2019-02-06T20:25:10.907Z,36.97
2019-02-06T20:27:38.861Z,46.77
2019-02-06T20:30:09.222Z,42.97
2019-02-06T20:32:38.179Z,37.90
2019-02-06T20:35:07.614Z,37.80
2019-02-06T20:37:35.303Z,43.87
2019-02-06T20:40:04.943Z,33.97
2019-02-06T20:42:33.331Z,39.90
2019-02-06T20:45:01.284Z,39.00
2019-02-06T20:47:28.927Z,37.30
2019-02-06T20:49:56.669Z,40.00
2019-02-06T20:52:24.416Z,35.87
2019-02-06T20:54:51.949Z,42.53
2019-02-06T20:57:20.230Z,43.87
2019-02-06T20:59:48.089Z,38.40
2019-02-06T21:02:16.485Z,41.70
2019-02-06T21:04:46.947Z,48.90
2019-02-06T21:07:13.870Z,40.10
2019-02-06T21:09:41.481Z,44.03
2019-02-06T21:12:09.058Z,42.50
2019-02-06T21:14:36.600Z,45.30
2019-02-06T21:17:04.364Z,44.83
2019-02-06T21:19:32.418Z,46.90
2019-02-06T21:22:00.085Z,48.70
2019-02-06T21:24:27.623Z,51.10
2019-02-06T21:26:55.205Z,52.13
2019-02-06T21:29:22.970Z,51.63
2019-02-06T21:31:50.420Z,54.30
2019-02-06T21:34:18.026Z,52.63
2019-02-06T21:36:45.956Z,57.67
2019-02-06T21:39:13.437Z,62.73
2019-02-06T21:41:41.190Z,61.55
2019-02-06T21:44:08.787Z,55.23
2019-02-06T21:46:36.254Z,51.23
2019-02-06T21:49:03.814Z,55.63
2019-02-06T21:51:34.582Z,58.57
2019-02-06T21:54:02.842Z,52.73
2019-02-06T21:56:30.350Z,50.47
2019-02-06T21:58:58.024Z,57.30
2019-02-06T22:01:25.746Z,55.00
2019-02-06T22:03:53.319Z,61.07
2019-02-06T22:06:20.778Z,53.57
2019-02-06T22:08:48.298Z,49.77
2019-02-06T22:11:16.287Z,50.93
2019-02-06T22:13:54.633Z,55.50
2019-02-06T22:16:13.106Z,51.67
2019-02-06T22:18:40.536Z,51.77
2019-02-06T22:21:08.073Z,49.90
2019-02-06T22:23:35.625Z,56.00
2019-02-06T22:26:03.443Z,49.53
2019-02-06T22:28:31.134Z,45.30
2019-02-06T22:30:58.582Z,47.30
2019-02-06T22:33:26.087Z,48.63
2019-02-06T22:35:53.670Z,51.03
2019-02-06T22:38:21.126Z,50.27
2019-02-06T22:40:49.031Z,47.17
2019-02-06T22:43:16.606Z,47.07
2019-02-06T22:45:44.492Z,53.27
2019-02-06T22:48:12.120Z,42.13
2019-02-06T22:50:39.704Z,42.38
2019-02-06T22:53:18.207Z,45.17
2019-02-06T22:55:45.733Z,50.67
2019-02-06T22:58:13.376Z,45.80
2019-02-06T23:01:15.770Z,46.00
2019-02-06T23:03:45.036Z,43.83
2019-02-06T23:06:13.100Z,37.10
2019-02-06T23:08:41.231Z,45.27
2019-02-06T23:11:09.052Z,41.63
2019-02-06T23:13:36.608Z,40.57
2019-02-06T23:16:04.807Z,42.60
2019-02-06T23:18:32.463Z,45.23
2019-02-06T23:21:00.051Z,40.23
2019-02-06T23:23:27.693Z,40.80
2019-02-06T23:25:55.740Z,36.40
2019-02-06T23:28:23.534Z,36.60
2019-02-06T23:30:51.123Z,38.60
2019-02-06T23:33:18.770Z,38.10
2019-02-06T23:35:46.350Z,42.43
2019-02-06T23:38:14.263Z,37.60
2019-02-06T23:40:41.892Z,35.40
2019-02-06T23:43:09.703Z,34.20
2019-02-06T23:45:37.260Z,36.47
2019-02-06T23:48:04.994Z,34.60
2019-02-06T23:50:32.683Z,34.63
2019-02-06T23:53:00.403Z,35.97
2019-02-06T23:55:28.131Z,37.67
2019-02-06T23:57:55.739Z,31.43
